createdAt,value
2019-01-19T00:00:46.354Z,8.70
2019-01-19T00:03:14.329Z,8.70
2019-01-19T00:05:42.293Z,8.70
2019-01-19T00:08:12.207Z,8.70
2019-01-19T00:10:40.177Z,8.70
2019-01-19T00:13:08.152Z,8.70
2019-01-19T00:15:36.118Z,8.60
2019-01-19T00:18:04.194Z,8.60
2019-01-19T00:20:33.162Z,8.60
2019-01-19T00:23:01.253Z,8.60
2019-01-19T00:25:29.737Z,8.60
2019-01-19T00:27:57.917Z,8.60
2019-01-19T00:30:26.504Z,8.60
2019-01-19T00:32:55.952Z,8.60
2019-01-19T00:35:24.479Z,8.60
2019-01-19T00:37:52.417Z,8.60
2019-01-19T00:40:21.439Z,8.50
2019-01-19T00:42:49.491Z,8.50
2019-01-19T00:45:17.460Z,8.40
2019-01-19T00:47:45.564Z,8.40
2019-01-19T00:50:13.732Z,8.50
2019-01-19T00:52:41.903Z,8.40
2019-01-19T00:55:11.585Z,8.30
2019-01-19T00:57:39.584Z,8.30
2019-01-19T01:00:07.654Z,8.30
2019-01-19T01:02:35.626Z,8.20
2019-01-19T01:05:15.476Z,8.20
2019-01-19T01:07:43.543Z,8.20
2019-01-19T01:10:11.513Z,8.30
2019-01-19T01:12:39.658Z,8.30
2019-01-19T01:15:07.658Z,8.30
2019-01-19T01:17:35.630Z,8.30
2019-01-19T01:20:03.904Z,8.30
2019-01-19T01:22:32.828Z,8.30
2019-01-19T01:25:00.973Z,8.20
2019-01-19T01:27:29.044Z,8.20
2019-01-19T01:29:57.011Z,8.20
2019-01-19T01:32:25.081Z,8.20
2019-01-19T01:34:55.705Z,8.20
2019-01-19T01:37:23.774Z,8.20
2019-01-19T01:39:51.726Z,8.20
2019-01-19T01:42:19.827Z,8.10
2019-01-19T01:44:47.900Z,8.20
2019-01-19T01:47:15.843Z,8.10
2019-01-19T01:49:43.939Z,8.10
2019-01-19T01:52:12.012Z,8.10
2019-01-19T01:54:39.957Z,8.10
2019-01-19T01:57:08.051Z,8.10
2019-01-19T01:59:45.242Z,8.10
2019-01-19T02:02:13.514Z,8.10
2019-01-19T02:04:43.428Z,8.10
2019-01-19T02:07:12.987Z,8.20
2019-01-19T02:09:41.081Z,8.20
2019-01-19T02:12:10.748Z,8.10
2019-01-19T02:14:38.663Z,8.20
2019-01-19T02:17:08.231Z,8.20
2019-01-19T02:19:36.241Z,8.20
2019-01-19T02:22:05.566Z,8.20
2019-01-19T02:24:33.511Z,8.10
2019-01-19T02:27:01.478Z,8.20
2019-01-19T02:29:29.547Z,8.10
2019-01-19T02:31:57.623Z,8.10
2019-01-19T02:34:25.904Z,8.10
2019-01-19T02:36:53.894Z,8.10
2019-01-19T02:39:28.109Z,8.00
2019-01-19T02:41:56.080Z,8.00
2019-01-19T02:44:24.127Z,8.00
2019-01-19T02:46:52.120Z,7.90
2019-01-19T02:49:20.191Z,7.90
2019-01-19T02:51:48.264Z,7.90
2019-01-19T02:54:16.340Z,7.90
2019-01-19T02:56:44.498Z,7.90
2019-01-19T02:59:12.790Z,7.90
2019-01-19T03:01:40.947Z,7.90
2019-01-19T03:04:08.906Z,7.90
2019-01-19T03:06:36.899Z,7.90
2019-01-19T03:09:05.057Z,7.90
2019-01-19T03:11:34.127Z,7.90
2019-01-19T03:14:02.422Z,7.90
2019-01-19T03:16:30.725Z,7.90
2019-01-19T03:19:08.214Z,7.90
2019-01-19T03:21:38.114Z,7.90
2019-01-19T03:24:05.794Z,7.90
2019-01-19T03:26:33.940Z,7.90
2019-01-19T03:29:02.023Z,7.90
2019-01-19T03:31:31.977Z,7.90
2019-01-19T03:33:59.998Z,8.00
2019-01-19T03:36:28.098Z,8.00
2019-01-19T03:38:57.328Z,8.00
2019-01-19T03:41:25.754Z,8.00
2019-01-19T03:43:53.849Z,7.90
2019-01-19T03:46:22.125Z,7.80
2019-01-19T03:48:50.073Z,7.80
2019-01-19T03:51:18.165Z,7.80
2019-01-19T03:53:46.972Z,7.80
2019-01-19T03:56:14.930Z,7.80
2019-01-19T03:58:42.902Z,7.80
2019-01-19T04:01:10.865Z,7.70
2019-01-19T04:03:38.834Z,7.70
2019-01-19T04:06:12.665Z,7.70
2019-01-19T04:08:36.411Z,7.60
2019-01-19T04:11:04.382Z,7.70
2019-01-19T04:13:32.350Z,7.70
2019-01-19T04:16:00.293Z,7.60
2019-01-19T04:18:30.007Z,7.60
2019-01-19T04:20:57.975Z,7.60
2019-01-19T04:23:26.046Z,7.60
2019-01-19T04:25:54.040Z,7.50
2019-01-19T04:28:25.613Z,7.50
2019-01-19T04:30:53.664Z,7.50
2019-01-19T04:33:21.723Z,7.50
2019-01-19T04:35:49.692Z,7.40
2019-01-19T04:38:18.071Z,7.40
2019-01-19T04:40:46.062Z,7.30
2019-01-19T04:43:14.024Z,7.30
2019-01-19T04:45:41.974Z,7.30
2019-01-19T04:48:09.963Z,7.20
2019-01-19T04:50:37.939Z,7.20
2019-01-19T04:53:05.874Z,7.20
2019-01-19T04:55:33.846Z,7.20
2019-01-19T04:58:01.840Z,7.20
2019-01-19T05:00:29.886Z,7.20
2019-01-19T05:02:57.824Z,7.20
2019-01-19T05:05:27.086Z,7.20
2019-01-19T05:07:55.155Z,7.20
2019-01-19T05:10:24.085Z,7.30
2019-01-19T05:12:54.115Z,7.30
2019-01-19T05:15:21.930Z,7.30
2019-01-19T05:17:50.081Z,7.30
2019-01-19T05:20:19.979Z,7.20
2019-01-19T05:22:47.885Z,7.20
2019-01-19T05:25:15.956Z,7.20
2019-01-19T05:27:44.335Z,7.20
2019-01-19T05:30:12.406Z,7.30
2019-01-19T05:32:40.667Z,7.30
2019-01-19T05:35:08.857Z,7.30
2019-01-19T05:37:36.827Z,7.30
2019-01-19T05:40:04.904Z,7.30
2019-01-19T05:42:32.868Z,7.40
2019-01-19T05:45:00.840Z,7.40
2019-01-19T05:47:29.195Z,7.50
2019-01-19T05:49:57.188Z,7.50
2019-01-19T05:52:26.158Z,7.50
2019-01-19T05:54:54.163Z,7.60
2019-01-19T05:57:22.512Z,7.60
2019-01-19T05:59:50.498Z,7.60
2019-01-19T06:02:18.956Z,7.60
2019-01-19T06:04:46.950Z,7.60
2019-01-19T06:07:15.134Z,7.60
2019-01-19T06:09:43.093Z,7.60
2019-01-19T06:12:11.070Z,7.70
2019-01-19T06:14:39.002Z,7.60
2019-01-19T06:17:07.001Z,7.60
2019-01-19T06:19:35.287Z,7.70
2019-01-19T06:22:03.556Z,7.60
2019-01-19T06:24:33.156Z,7.60
2019-01-19T06:27:01.106Z,7.60
2019-01-19T06:29:29.306Z,7.50
2019-01-19T06:31:57.276Z,7.50
2019-01-19T06:34:25.231Z,7.40
2019-01-19T06:36:55.156Z,7.40
2019-01-19T06:39:22.822Z,7.30
2019-01-19T06:41:51.820Z,7.30
2019-01-19T06:44:19.793Z,7.30
2019-01-19T06:46:47.754Z,7.20
2019-01-19T06:49:15.696Z,7.20
2019-01-19T06:51:43.670Z,7.20
2019-01-19T06:54:12.071Z,7.20
2019-01-19T06:56:40.238Z,7.20
2019-01-19T06:59:08.295Z,7.20
2019-01-19T07:01:36.362Z,7.20
2019-01-19T07:04:04.340Z,7.20
2019-01-19T07:06:32.533Z,7.20
2019-01-19T07:09:00.478Z,7.20
2019-01-19T07:11:29.186Z,7.20
2019-01-19T07:13:57.157Z,7.20
2019-01-19T07:16:25.109Z,7.20
2019-01-19T07:18:53.610Z,7.20
2019-01-19T07:21:21.495Z,7.30
2019-01-19T07:23:49.554Z,7.30
2019-01-19T07:26:17.517Z,7.30
2019-01-19T07:28:45.589Z,7.40
2019-01-19T07:31:13.747Z,7.40
2019-01-19T07:33:41.733Z,7.50
2019-01-19T07:36:09.882Z,7.60
2019-01-19T07:38:37.977Z,8.00
2019-01-19T07:41:05.947Z,8.40
2019-01-19T07:43:34.298Z,8.80
2019-01-19T07:46:02.399Z,9.20
2019-01-19T07:48:30.551Z,9.60
2019-01-19T07:50:59.687Z,10.00
2019-01-19T07:53:27.638Z,10.40
2019-01-19T07:56:00.250Z,10.80
2019-01-19T07:58:28.288Z,11.20
2019-01-19T08:00:56.444Z,11.60
2019-01-19T08:03:24.431Z,11.90
2019-01-19T08:05:52.479Z,12.30
2019-01-19T08:08:20.784Z,12.80
2019-01-19T08:10:49.134Z,13.20
2019-01-19T08:13:19.104Z,13.60
2019-01-19T08:15:47.247Z,14.10
2019-01-19T08:18:15.294Z,14.50
2019-01-19T08:20:43.391Z,14.90
2019-01-19T08:23:11.446Z,15.30
2019-01-19T08:25:39.508Z,15.80
2019-01-19T08:28:07.506Z,16.20
2019-01-19T08:30:35.560Z,16.70
2019-01-19T08:33:03.650Z,17.20
2019-01-19T08:35:32.212Z,17.70
2019-01-19T08:38:00.181Z,18.30
2019-01-19T08:40:28.176Z,18.80
2019-01-19T08:43:09.953Z,19.20
2019-01-19T08:45:38.246Z,19.60
2019-01-19T08:48:06.494Z,20.10
2019-01-19T08:50:34.565Z,20.50
2019-01-19T08:53:02.766Z,20.80
2019-01-19T08:55:31.955Z,21.20
2019-01-19T08:58:00.042Z,21.60
2019-01-19T09:00:28.211Z,22.00
2019-01-19T09:02:56.156Z,22.40
2019-01-19T09:05:24.250Z,22.70
2019-01-19T09:07:52.196Z,23.10
2019-01-19T09:10:20.173Z,23.50
2019-01-19T09:12:48.240Z,24.00
2019-01-19T09:15:16.537Z,24.10
2019-01-19T09:17:44.509Z,24.10
2019-01-19T09:20:12.452Z,24.20
2019-01-19T09:22:41.583Z,24.30
2019-01-19T09:25:15.428Z,24.60
2019-01-19T09:27:40.150Z,24.60
2019-01-19T09:30:09.430Z,24.40
2019-01-19T09:32:37.735Z,24.50
2019-01-19T09:35:05.814Z,24.50
2019-01-19T09:37:40.655Z,24.20
2019-01-19T09:40:03.401Z,24.00
2019-01-19T09:42:31.576Z,23.90
2019-01-19T09:44:59.646Z,23.80
2019-01-19T09:47:27.719Z,23.40
2019-01-19T09:49:55.870Z,23.40
2019-01-19T09:52:25.081Z,23.30
2019-01-19T09:54:53.138Z,23.60
2019-01-19T09:57:21.131Z,23.20
2019-01-19T09:59:50.309Z,23.60
2019-01-19T10:02:18.301Z,24.00
2019-01-19T10:04:46.858Z,24.50
2019-01-19T10:07:14.751Z,24.80
2019-01-19T10:09:42.798Z,24.80
2019-01-19T10:12:10.894Z,24.90
2019-01-19T10:14:39.601Z,24.90
2019-01-19T10:17:09.597Z,25.00
2019-01-19T10:19:37.567Z,25.60
2019-01-19T10:22:05.639Z,25.90
2019-01-19T10:24:33.607Z,25.60
2019-01-19T10:27:01.567Z,25.80
2019-01-19T10:29:29.548Z,25.80
2019-01-19T10:31:57.589Z,25.70
2019-01-19T10:34:26.103Z,25.90
2019-01-19T10:36:54.074Z,24.90
2019-01-19T10:39:22.629Z,25.70
2019-01-19T10:41:50.599Z,25.70
2019-01-19T10:44:18.713Z,26.70
2019-01-19T10:46:48.005Z,27.10
2019-01-19T10:49:15.944Z,27.00
2019-01-19T10:51:43.915Z,26.80
2019-01-19T10:54:11.905Z,27.10
2019-01-19T10:56:39.977Z,27.60
2019-01-19T10:59:07.901Z,27.60
2019-01-19T11:01:36.121Z,27.40
2019-01-19T11:04:04.089Z,27.30
2019-01-19T11:06:32.058Z,27.00
2019-01-19T11:08:59.998Z,26.00
2019-01-19T11:11:28.279Z,26.50
2019-01-19T11:13:56.247Z,26.50
2019-01-19T11:16:24.253Z,26.20
2019-01-19T11:18:53.229Z,26.20
2019-01-19T11:21:21.287Z,25.80
2019-01-19T11:23:49.378Z,25.50
2019-01-19T11:26:17.452Z,24.50
2019-01-19T11:28:45.400Z,23.50
2019-01-19T11:31:13.391Z,22.30
2019-01-19T11:33:41.542Z,21.20
2019-01-19T11:36:11.227Z,20.20
2019-01-19T11:38:39.119Z,19.30
2019-01-19T11:41:07.091Z,18.70
2019-01-19T11:43:36.699Z,18.10
2019-01-19T11:46:06.619Z,17.70
2019-01-19T11:48:34.685Z,17.40
2019-01-19T11:51:02.644Z,17.10
2019-01-19T11:53:30.645Z,16.90
2019-01-19T11:55:58.595Z,16.70
2019-01-19T11:58:28.811Z,16.70
2019-01-19T12:00:56.805Z,16.60
2019-01-19T12:03:24.877Z,16.60
2019-01-19T12:05:53.240Z,16.40
2019-01-19T12:08:21.303Z,16.30
2019-01-19T12:10:49.299Z,16.10
2019-01-19T12:13:17.248Z,16.00
2019-01-19T12:15:45.238Z,15.90
2019-01-19T12:18:13.412Z,15.90
2019-01-19T12:20:41.387Z,15.90
2019-01-19T12:23:10.506Z,15.90
2019-01-19T12:25:38.650Z,16.00
2019-01-19T12:28:06.912Z,16.20
2019-01-19T12:30:34.899Z,16.40
2019-01-19T12:33:06.092Z,16.60
2019-01-19T12:35:34.111Z,16.60
2019-01-19T12:38:02.080Z,16.40
2019-01-19T12:40:30.155Z,16.20
2019-01-19T12:42:58.331Z,16.00
2019-01-19T12:45:26.297Z,16.00
2019-01-19T12:47:55.269Z,16.10
2019-01-19T12:50:23.335Z,16.00
2019-01-19T12:52:51.306Z,16.10
2019-01-19T12:55:19.304Z,16.30
2019-01-19T12:57:47.270Z,16.50
2019-01-19T13:00:15.241Z,16.60
2019-01-19T13:02:43.184Z,16.40
2019-01-19T13:05:11.178Z,16.40
2019-01-19T13:07:39.123Z,16.50
2019-01-19T13:10:07.117Z,16.60
2019-01-19T13:12:35.086Z,16.80
2019-01-19T13:15:03.550Z,16.90
2019-01-19T13:17:31.639Z,17.00
2019-01-19T13:19:59.608Z,17.10
2019-01-19T13:22:27.669Z,17.30
2019-01-19T13:24:55.632Z,17.50
2019-01-19T13:27:23.597Z,17.50
2019-01-19T13:29:51.570Z,17.60
2019-01-19T13:32:19.567Z,17.60
2019-01-19T13:34:47.504Z,17.50
2019-01-19T13:37:15.653Z,17.30
2019-01-19T13:39:43.649Z,17.10
2019-01-19T13:42:11.647Z,16.70
2019-01-19T13:44:39.698Z,16.40
2019-01-19T13:47:07.689Z,15.90
2019-01-19T13:49:36.244Z,15.50
2019-01-19T13:52:04.343Z,15.20
2019-01-19T13:54:33.998Z,15.00
2019-01-19T13:57:02.020Z,14.70
2019-01-19T13:59:30.194Z,14.50
2019-01-19T14:01:59.148Z,14.30
2019-01-19T14:04:27.155Z,14.10
2019-01-19T14:06:55.202Z,14.00
2019-01-19T14:09:23.173Z,13.90
2019-01-19T14:11:51.370Z,13.80
2019-01-19T14:14:19.547Z,13.80
2019-01-19T14:16:47.514Z,13.60
2019-01-19T14:19:17.332Z,13.50
2019-01-19T14:21:45.586Z,13.40
2019-01-19T14:24:13.778Z,13.30
2019-01-19T14:26:41.750Z,13.30
2019-01-19T14:29:09.898Z,13.30
2019-01-19T14:31:37.805Z,13.30
2019-01-19T14:34:05.863Z,13.20
2019-01-19T14:36:34.035Z,13.20
2019-01-19T14:39:01.982Z,13.20
2019-01-19T14:41:29.973Z,13.20
2019-01-19T14:43:57.943Z,13.20
2019-01-19T14:46:26.000Z,13.20
2019-01-19T14:48:54.088Z,13.10
2019-01-19T14:51:22.055Z,13.20
2019-01-19T14:53:50.004Z,13.20
2019-01-19T14:56:18.202Z,13.20
2019-01-19T14:58:46.173Z,13.10
2019-01-19T15:01:15.334Z,13.10
2019-01-19T15:03:43.335Z,13.00
2019-01-19T15:06:11.510Z,13.00
2019-01-19T15:08:40.524Z,12.90
2019-01-19T15:11:08.884Z,12.90
2019-01-19T15:13:36.851Z,12.90
2019-01-19T15:16:05.028Z,12.90
2019-01-19T15:18:33.754Z,12.90
2019-01-19T15:21:01.887Z,12.90
2019-01-19T15:23:30.267Z,12.90
2019-01-19T15:25:58.241Z,12.90
2019-01-19T15:28:26.208Z,12.90
2019-01-19T15:30:54.486Z,12.90
2019-01-19T15:33:24.144Z,12.80
2019-01-19T15:35:55.905Z,12.60
2019-01-19T15:38:24.002Z,12.50
2019-01-19T15:40:52.094Z,12.40
2019-01-19T15:43:20.061Z,12.30
2019-01-19T15:45:48.231Z,12.30
2019-01-19T15:48:16.136Z,12.20
2019-01-19T15:50:44.178Z,12.20
2019-01-19T15:53:12.248Z,12.10
2019-01-19T15:55:40.528Z,12.10
2019-01-19T15:58:08.485Z,12.10
2019-01-19T16:00:37.565Z,12.10
2019-01-19T16:03:05.969Z,12.00
2019-01-19T16:05:34.455Z,12.00
2019-01-19T16:08:02.522Z,12.00
2019-01-19T16:10:30.580Z,12.00
2019-01-19T16:12:58.864Z,11.80
2019-01-19T16:15:26.856Z,11.80
2019-01-19T16:17:56.843Z,11.80
2019-01-19T16:20:24.829Z,11.70
2019-01-19T16:22:53.000Z,11.60
2019-01-19T16:25:21.281Z,11.60
2019-01-19T16:27:49.349Z,11.50
2019-01-19T16:30:19.179Z,11.40
2019-01-19T16:32:47.132Z,11.40
2019-01-19T16:35:15.306Z,11.30
2019-01-19T16:37:43.384Z,11.30
2019-01-19T16:40:12.529Z,11.30
2019-01-19T16:42:40.749Z,11.20
2019-01-19T16:45:09.780Z,11.10
2019-01-19T16:47:37.919Z,11.10
2019-01-19T16:50:05.987Z,11.00
2019-01-19T16:52:35.274Z,11.00
2019-01-19T16:55:03.586Z,10.90
2019-01-19T16:57:32.048Z,10.80
2019-01-19T17:00:00.345Z,10.80
2019-01-19T17:02:28.394Z,10.70
2019-01-19T17:04:56.470Z,10.70
2019-01-19T17:07:24.539Z,10.70
2019-01-19T17:09:52.612Z,10.60
2019-01-19T17:12:20.557Z,10.60
2019-01-19T17:14:48.550Z,10.50
2019-01-19T17:17:16.496Z,10.40
2019-01-19T17:19:44.488Z,10.30
2019-01-19T17:22:12.444Z,10.20
2019-01-19T17:24:40.406Z,10.20
2019-01-19T17:27:08.710Z,10.20
2019-01-19T17:29:36.673Z,10.10
2019-01-19T17:32:04.618Z,10.10
2019-01-19T17:34:32.586Z,10.10
2019-01-19T17:37:01.300Z,10.10
2019-01-19T17:39:29.243Z,10.00
2019-01-19T17:41:57.446Z,10.00
2019-01-19T17:44:25.519Z,10.00
2019-01-19T17:46:56.053Z,10.00
2019-01-19T17:49:24.321Z,9.90
2019-01-19T17:51:53.929Z,9.90
2019-01-19T17:54:21.982Z,9.80
2019-01-19T17:56:51.278Z,9.80
2019-01-19T17:59:19.270Z,9.70
2019-01-19T18:01:47.426Z,9.60
2019-01-19T18:04:15.503Z,9.60
2019-01-19T18:06:43.694Z,9.60
2019-01-19T18:09:11.766Z,9.60
2019-01-19T18:11:39.837Z,9.50
2019-01-19T18:14:08.037Z,9.50
2019-01-19T18:16:36.222Z,9.50
2019-01-19T18:19:04.459Z,9.50
2019-01-19T18:21:32.608Z,9.50
2019-01-19T18:24:00.579Z,9.50
2019-01-19T18:26:30.197Z,9.40
2019-01-19T18:29:00.726Z,9.50
2019-01-19T18:31:31.642Z,9.40
2019-01-19T18:33:59.784Z,9.40
2019-01-19T18:36:27.923Z,9.40
2019-01-19T18:38:56.003Z,9.40
2019-01-19T18:41:24.021Z,9.40
2019-01-19T18:43:53.867Z,9.40
2019-01-19T18:46:22.320Z,9.50
2019-01-19T18:48:53.097Z,9.40
2019-01-19T18:51:21.038Z,9.50
2019-01-19T18:53:49.053Z,9.50
2019-01-19T18:56:17.112Z,9.50
2019-01-19T18:58:45.075Z,9.50
2019-01-19T19:01:13.330Z,9.50
2019-01-19T19:03:41.732Z,9.50
2019-01-19T19:06:09.676Z,9.50
2019-01-19T19:08:37.646Z,9.50
2019-01-19T19:11:17.693Z,9.50
2019-01-19T19:13:46.204Z,9.50
2019-01-19T19:16:14.819Z,9.60
2019-01-19T19:18:42.974Z,9.60
2019-01-19T19:21:12.381Z,9.60
2019-01-19T19:23:40.436Z,9.60
2019-01-19T19:26:08.511Z,9.70
2019-01-19T19:28:36.580Z,9.80
2019-01-19T19:31:04.552Z,9.70
2019-01-19T19:33:32.519Z,9.70
2019-01-19T19:36:00.902Z,9.70
2019-01-19T19:38:30.096Z,9.70
2019-01-19T19:40:58.286Z,9.70
2019-01-19T19:43:26.110Z,9.70
2019-01-19T19:45:53.995Z,9.70
2019-01-19T19:48:23.679Z,9.60
2019-01-19T19:50:51.686Z,9.60
2019-01-19T19:53:19.655Z,9.60
2019-01-19T19:55:47.625Z,9.60
2019-01-19T19:58:15.665Z,9.60
2019-01-19T20:00:43.958Z,9.60
2019-01-19T20:03:12.287Z,9.60
2019-01-19T20:05:41.869Z,9.70
2019-01-19T20:08:09.915Z,9.70
2019-01-19T20:10:38.025Z,9.80
2019-01-19T20:13:05.891Z,9.70
2019-01-19T20:15:33.939Z,9.70
2019-01-19T20:18:03.233Z,9.70
2019-01-19T20:20:31.123Z,9.70
2019-01-19T20:23:00.146Z,9.70
2019-01-19T20:25:28.230Z,9.70
2019-01-19T20:27:56.773Z,9.70
2019-01-19T20:30:25.135Z,9.80
2019-01-19T20:32:53.245Z,9.80
2019-01-19T20:35:21.153Z,9.80
2019-01-19T20:37:49.091Z,9.90
2019-01-19T20:40:24.326Z,9.90
2019-01-19T20:42:49.041Z,9.90
2019-01-19T20:45:18.039Z,10.00
2019-01-19T20:47:46.890Z,10.00
2019-01-19T20:50:14.819Z,10.00
2019-01-19T20:52:45.029Z,10.10
2019-01-19T20:55:12.755Z,10.10
2019-01-19T20:57:41.247Z,10.10
2019-01-19T21:00:11.331Z,10.10
2019-01-19T21:02:39.419Z,10.10
2019-01-19T21:05:07.296Z,10.10
2019-01-19T21:07:38.830Z,10.10
2019-01-19T21:10:07.356Z,10.10
2019-01-19T21:12:35.460Z,10.10
2019-01-19T21:15:03.522Z,10.20
2019-01-19T21:20:11.823Z,10.20
2019-01-19T21:22:42.518Z,10.20
2019-01-19T21:25:14.505Z,10.20
2019-01-19T21:27:45.691Z,10.30
2019-01-19T21:30:14.447Z,10.30
2019-01-19T21:32:42.441Z,10.30
2019-01-19T21:35:11.050Z,10.30
2019-01-19T21:37:39.831Z,10.30
2019-01-19T21:40:08.374Z,10.30
2019-01-19T21:42:36.490Z,10.30
2019-01-19T21:45:05.022Z,10.30
2019-01-19T21:47:33.755Z,10.40
2019-01-19T21:50:11.052Z,10.30
2019-01-19T21:52:39.122Z,10.30
2019-01-19T21:55:07.162Z,10.30
2019-01-19T21:57:35.261Z,10.30
2019-01-19T22:00:03.336Z,10.30
2019-01-19T22:02:34.227Z,10.30
2019-01-19T22:05:02.344Z,10.30
2019-01-19T22:07:30.355Z,10.30
2019-01-19T22:09:58.360Z,10.30
2019-01-19T22:12:26.455Z,10.30
2019-01-19T22:14:54.428Z,10.30
2019-01-19T22:17:22.394Z,10.40
2019-01-19T22:19:52.268Z,10.40
2019-01-19T22:22:20.255Z,10.40
2019-01-19T22:24:48.146Z,10.40
2019-01-19T22:27:19.084Z,10.40
2019-01-19T22:29:47.126Z,10.40
2019-01-19T22:32:15.103Z,10.50
2019-01-19T22:34:43.508Z,10.50
2019-01-19T22:37:11.472Z,10.40
2019-01-19T22:39:39.444Z,10.50
2019-01-19T22:42:07.596Z,10.40
2019-01-19T22:44:35.566Z,10.50
2019-01-19T22:47:03.871Z,10.60
2019-01-19T22:49:32.247Z,10.60
2019-01-19T22:52:00.727Z,10.50
2019-01-19T22:54:28.796Z,10.50
2019-01-19T22:56:56.969Z,10.50
2019-01-19T22:59:25.066Z,10.50
2019-01-19T23:01:53.010Z,10.40
2019-01-19T23:04:22.059Z,10.50
2019-01-19T23:06:52.841Z,10.40
2019-01-19T23:09:21.033Z,10.40
2019-01-19T23:11:48.989Z,10.40
2019-01-19T23:14:17.656Z,10.40
2019-01-19T23:16:45.614Z,10.40
2019-01-19T23:19:14.582Z,10.40
2019-01-19T23:21:43.014Z,10.40
2019-01-19T23:24:12.751Z,10.40
2019-01-19T23:26:41.485Z,10.40
2019-01-19T23:29:09.457Z,10.40
2019-01-19T23:31:37.653Z,10.40
2019-01-19T23:34:05.829Z,10.40
2019-01-19T23:36:34.016Z,10.40
2019-01-19T23:39:02.074Z,10.40
2019-01-19T23:41:31.879Z,10.40
2019-01-19T23:43:59.860Z,10.40
2019-01-19T23:46:28.780Z,10.40
2019-01-19T23:48:56.818Z,10.50
2019-01-19T23:51:24.790Z,10.40
2019-01-19T23:53:53.252Z,10.40
2019-01-19T23:56:21.447Z,10.40
2019-01-19T23:58:49.607Z,10.40
